Wijchen, Netherlands
Current Conditions -  °F | °C
As of 4:25 PM on Monday 24 Nov 2014 (Local Time) from EHVK Reporting Station
Scattered Clouds Scattered Clouds  
Wind Chill: 46°   Ceiling: Unl
Heat Index: 46°   Visibility: 6mi
Dew Point: 37°   Wind: 2mph
Humidity: 71%   Direction: 260°W
Pressure: 30.3"   Gusts: NA
Location:  51.81°N, 5.73°E
Report Text: EHVK 241525Z AUTO 26002KT //// R24R/P3000 // FEW240 08/03 Q1026 RE// 32005KT 9999 FEW025 SCT250
Loading
Personal Weather Stations






























Interactive Weather Map New forecast layout! Learn more

10-Day Weather Forecast

Advertisements
Track Severe Weather on mobile